createdAt,value
2018-12-12T00:00:30.101Z,0.2
2018-12-12T00:01:29.990Z,0.1
2018-12-12T00:02:29.884Z,0
2018-12-12T00:03:30.031Z,0
2018-12-12T00:04:29.916Z,0
2018-12-12T00:05:29.801Z,0.1
2018-12-12T00:06:30.379Z,0.1
2018-12-12T00:07:30.284Z,0.1
2018-12-12T00:08:30.185Z,0.2
2018-12-12T00:16:28.796Z,0.7
2018-12-12T00:17:28.709Z,0.6
2018-12-12T00:18:28.620Z,0.6
2018-12-12T00:19:28.506Z,0.6
2018-12-12T00:20:28.391Z,0.7
2018-12-12T00:21:28.505Z,0.6
2018-12-12T00:22:28.384Z,0.6
2018-12-12T00:23:28.254Z,0.5
2018-12-12T00:24:28.129Z,0.5
2018-12-12T00:25:28.054Z,0.4
2018-12-12T00:26:28.360Z,0.4
2018-12-12T00:27:28.304Z,0.4
2018-12-12T00:28:28.184Z,0.4
2018-12-12T00:29:28.061Z,0.4
2018-12-12T00:30:27.976Z,0.3
2018-12-12T00:31:27.888Z,0.3
2018-12-12T00:32:27.776Z,0.2
2018-12-12T00:33:27.726Z,0.2
2018-12-12T00:34:27.602Z,0.2
2018-12-12T00:35:27.488Z,0.1
2018-12-12T00:36:28.005Z,0.1
2018-12-12T00:37:27.904Z,0.1
2018-12-12T00:38:27.784Z,0
2018-12-12T00:39:27.668Z,0
2018-12-12T00:40:27.784Z,0.1
2018-12-12T00:41:27.668Z,0
2018-12-12T00:42:27.612Z,0
2018-12-12T00:43:27.532Z,0
2018-12-12T00:44:27.420Z,0
2018-12-12T00:45:27.293Z,-0.1
2018-12-12T00:46:27.908Z,-0.1
2018-12-12T00:47:27.808Z,-0.1
2018-12-12T00:48:27.722Z,-0.1
2018-12-12T00:49:27.627Z,-0.2
2018-12-12T00:50:27.512Z,-0.2
2018-12-12T00:51:27.420Z,-0.2
2018-12-12T00:52:27.314Z,-0.3
2018-12-12T00:53:27.278Z,-0.3
2018-12-12T00:54:27.182Z,-0.2
2018-12-12T00:55:27.066Z,-0.2
2018-12-12T00:56:27.684Z,-0.2
2018-12-12T00:57:27.562Z,-0.2
2018-12-12T00:58:27.444Z,-0.1
2018-12-12T01:06:26.706Z,0.4
2018-12-12T01:07:27.320Z,0.4
2018-12-12T01:08:27.232Z,0.3
2018-12-12T01:09:27.161Z,0.2
2018-12-12T01:10:27.087Z,0.2
2018-12-12T01:11:27.264Z,0.2
2018-12-12T01:12:27.174Z,0.2
2018-12-12T01:13:27.054Z,0.2
2018-12-12T01:14:26.947Z,0.2
2018-12-12T01:15:26.859Z,0.2
2018-12-12T01:16:27.927Z,0.1
2018-12-12T01:17:27.828Z,0
2018-12-12T01:26:26.909Z,0.5
2018-12-12T01:27:27.480Z,0.5
2018-12-12T01:28:27.430Z,0.4
2018-12-12T01:29:27.312Z,0.3
2018-12-12T01:30:27.198Z,0.3
2018-12-12T01:31:27.332Z,0.2
2018-12-12T01:32:27.235Z,0.2
2018-12-12T01:33:27.119Z,0.2
2018-12-12T01:34:27.267Z,0.1
2018-12-12T01:35:27.143Z,0.1
2018-12-12T01:36:27.450Z,0
2018-12-12T01:37:27.589Z,0
2018-12-12T01:38:27.477Z,0
2018-12-12T01:39:27.413Z,0
2018-12-12T01:40:27.324Z,0
2018-12-12T01:41:27.215Z,0
2018-12-12T01:42:27.119Z,0
2018-12-12T01:43:27.011Z,0
2018-12-12T01:44:26.905Z,0
2018-12-12T01:45:26.785Z,0
2018-12-12T01:46:27.110Z,0
2018-12-12T01:47:27.729Z,-0.1
2018-12-12T01:48:27.617Z,-0.1
2018-12-12T01:49:27.518Z,-0.1
2018-12-12T01:50:27.413Z,-0.2
2018-12-12T01:51:27.322Z,-0.2
2018-12-12T01:52:27.224Z,-0.2
2018-12-12T01:53:27.131Z,-0.3
2018-12-12T01:54:27.020Z,-0.3
2018-12-12T01:55:26.949Z,-0.3
2018-12-12T01:56:27.467Z,-0.4
2018-12-12T01:57:27.367Z,-0.4
2018-12-12T01:58:27.263Z,-0.4
2018-12-12T01:59:27.193Z,-0.4
2018-12-12T02:00:27.073Z,-0.4
2018-12-12T02:01:26.963Z,-0.4
2018-12-12T02:02:26.937Z,-0.4
2018-12-12T02:03:26.823Z,-0.4
2018-12-12T02:04:26.733Z,-0.4
2018-12-12T02:05:26.629Z,-0.4
2018-12-12T02:06:27.150Z,-0.4
2018-12-12T02:07:27.051Z,-0.4
2018-12-12T02:32:22.816Z,0.6
2018-12-12T02:38:21.850Z,0.6
2018-12-12T02:39:21.758Z,0.6
2018-12-12T02:41:21.390Z,0.5
2018-12-12T02:42:21.508Z,0.6
2018-12-12T02:43:21.424Z,0.6
2018-12-12T02:44:21.326Z,0.6
2018-12-12T02:45:21.224Z,0.5
2018-12-12T02:46:21.552Z,0.6
2018-12-12T02:47:21.470Z,0.5
2018-12-12T02:48:21.376Z,0.4
2018-12-12T02:49:21.503Z,0.3
2018-12-12T02:50:21.422Z,0.3
2018-12-12T02:51:21.338Z,0.3
2018-12-12T02:52:21.214Z,0.1
2018-12-12T02:53:21.111Z,0.1
2018-12-12T02:54:21.062Z,0
2018-12-12T02:55:21.040Z,0
2018-12-12T02:56:24.292Z,-0.1
2018-12-12T02:57:24.188Z,-0.2
2018-12-12T02:58:24.160Z,-0.1
2018-12-12T02:59:24.362Z,-0.1
2018-12-12T03:00:24.244Z,-0.1
2018-12-12T03:01:24.134Z,-0.2
2018-12-12T03:02:24.713Z,-0.2
2018-12-12T03:03:24.618Z,-0.2
2018-12-12T03:04:24.545Z,-0.3
2018-12-12T03:05:24.705Z,-0.3
2018-12-12T03:06:25.018Z,-0.3
2018-12-12T03:07:24.917Z,-0.2
2018-12-12T03:08:25.233Z,-0.2
2018-12-12T03:09:25.143Z,-0.2
2018-12-12T03:10:25.038Z,-0.3
2018-12-12T03:11:26.226Z,-0.3
2018-12-12T03:12:26.122Z,-0.3
2018-12-12T03:13:26.008Z,-0.4
2018-12-12T03:14:25.938Z,-0.3
2018-12-12T03:15:25.824Z,-0.4
2018-12-12T03:16:26.184Z,-0.4
2018-12-12T03:17:26.115Z,-0.4
2018-12-12T03:18:26.021Z,-0.4
2018-12-12T03:19:25.923Z,-0.4
2018-12-12T03:20:26.048Z,-0.4
2018-12-12T03:21:26.040Z,-0.4
2018-12-12T03:22:25.934Z,-0.4
2018-12-12T03:23:25.824Z,-0.4
2018-12-12T03:24:25.726Z,-0.4
2018-12-12T03:25:25.615Z,-0.4
2018-12-12T03:26:26.033Z,-0.4
2018-12-12T03:27:26.108Z,-0.4
2018-12-12T03:28:25.985Z,-0.4
2018-12-12T03:29:25.869Z,-0.5
2018-12-12T03:30:26.036Z,-0.5
2018-12-12T03:31:25.954Z,-0.5
2018-12-12T03:32:25.868Z,-0.5
2018-12-12T03:33:26.532Z,-0.5
2018-12-12T03:34:26.429Z,-0.5
2018-12-12T03:35:26.306Z,-0.5
2018-12-12T03:36:27.307Z,-0.6
2018-12-12T03:37:27.201Z,-0.6
2018-12-12T03:38:27.109Z,-0.6
2018-12-12T03:39:27.709Z,-0.6
2018-12-12T03:40:27.627Z,-0.6
2018-12-12T03:41:27.513Z,-0.6
2018-12-12T03:42:28.110Z,-0.6
2018-12-12T03:43:28.039Z,-0.6
2018-12-12T03:44:27.934Z,-0.6
2018-12-12T03:45:28.539Z,-0.6
2018-12-12T03:46:28.879Z,-0.6
2018-12-12T03:47:28.757Z,-0.6
2018-12-12T03:48:28.902Z,-0.6
2018-12-12T03:49:28.792Z,-0.6
2018-12-12T03:50:28.709Z,-0.6
2018-12-12T03:51:28.827Z,-0.6
2018-12-12T03:52:28.711Z,-0.6
2018-12-12T03:53:28.614Z,-0.6
2018-12-12T03:54:28.782Z,-0.6
2018-12-12T03:55:28.669Z,-0.6
2018-12-12T03:56:28.971Z,-0.7
2018-12-12T03:57:28.865Z,-0.7
2018-12-12T03:58:28.747Z,-0.7
2018-12-12T03:59:28.625Z,-0.7
2018-12-12T04:00:28.547Z,-0.6
2018-12-12T04:01:28.436Z,-0.6
2018-12-12T04:02:28.319Z,-0.6
2018-12-12T04:03:28.206Z,-0.6
2018-12-12T04:04:28.097Z,-0.6
2018-12-12T04:05:28.001Z,-0.6
2018-12-12T04:06:28.987Z,-0.6
2018-12-12T04:07:28.879Z,-0.6
2018-12-12T04:08:28.847Z,-0.6
2018-12-12T04:16:28.307Z,0.1
2018-12-12T04:17:28.220Z,0.2
2018-12-12T04:18:28.177Z,0.1
2018-12-12T04:19:28.153Z,0
2018-12-12T04:20:28.056Z,0
2018-12-12T04:21:28.013Z,-0.1
2018-12-12T04:22:27.904Z,-0.1
2018-12-12T04:23:27.808Z,-0.2
2018-12-12T04:24:27.727Z,-0.2
2018-12-12T04:25:27.630Z,-0.2
2018-12-12T04:26:28.239Z,-0.2
2018-12-12T04:27:28.127Z,-0.2
2018-12-12T04:28:28.019Z,-0.2
2018-12-12T04:29:27.927Z,-0.3
2018-12-12T04:30:27.835Z,-0.2
2018-12-12T04:31:27.752Z,-0.2
2018-12-12T04:32:27.640Z,-0.2
2018-12-12T04:33:27.527Z,-0.2
2018-12-12T04:34:27.407Z,-0.2
2018-12-12T04:35:27.291Z,-0.2
2018-12-12T04:36:27.623Z,-0.2
2018-12-12T04:37:27.525Z,-0.2
2018-12-12T04:38:27.400Z,-0.3
2018-12-12T04:39:27.319Z,-0.3
2018-12-12T04:40:27.219Z,-0.4
2018-12-12T04:41:27.132Z,-0.4
2018-12-12T04:42:27.037Z,-0.4
2018-12-12T04:43:26.933Z,-0.5
2018-12-12T04:44:26.822Z,-0.4
2018-12-12T04:45:26.796Z,-0.4
2018-12-12T04:46:27.142Z,-0.4
2018-12-12T04:47:27.059Z,-0.4
2018-12-12T04:48:26.950Z,-0.5
2018-12-12T04:49:26.834Z,-0.5
2018-12-12T04:50:26.736Z,-0.5
2018-12-12T04:51:26.612Z,-0.5
2018-12-12T04:52:26.491Z,-0.5
2018-12-12T04:53:26.405Z,-0.5
2018-12-12T04:54:26.360Z,-0.5
2018-12-12T04:55:26.243Z,-0.5
2018-12-12T04:56:26.541Z,-0.5
2018-12-12T04:57:26.404Z,-0.5
2018-12-12T04:58:26.524Z,-0.5
2018-12-12T04:59:26.443Z,-0.5
2018-12-12T05:00:26.342Z,-0.5
2018-12-12T05:01:26.228Z,-0.5
2018-12-12T05:02:26.131Z,-0.5
2018-12-12T05:03:26.005Z,-0.5
2018-12-12T05:04:25.896Z,-0.5
2018-12-12T05:05:25.869Z,-0.5
2018-12-12T05:06:26.198Z,-0.6
2018-12-12T05:07:26.135Z,-0.6
2018-12-12T05:26:22.045Z,0.3
2018-12-12T05:27:21.961Z,0.3
2018-12-12T05:28:21.843Z,0.2
2018-12-12T05:29:21.720Z,0.1
2018-12-12T05:30:21.661Z,0
2018-12-12T05:31:21.550Z,0
2018-12-12T05:32:21.459Z,0
2018-12-12T05:33:21.343Z,0
2018-12-12T05:34:21.230Z,0
2018-12-12T05:35:21.118Z,-0.1
2018-12-12T05:36:21.398Z,-0.1
2018-12-12T05:37:21.283Z,-0.2
2018-12-12T05:38:21.251Z,-0.2
2018-12-12T05:46:23.621Z,0.1
2018-12-12T05:47:23.498Z,0.1
2018-12-12T05:48:23.410Z,0.1
2018-12-12T05:49:23.357Z,0
2018-12-12T05:50:23.247Z,0
2018-12-12T05:51:23.121Z,-0.1
2018-12-12T05:52:23.005Z,-0.1
2018-12-12T05:53:22.901Z,-0.1
2018-12-12T05:54:22.807Z,-0.2
2018-12-12T05:55:22.697Z,-0.2
2018-12-12T05:56:23.036Z,-0.2
2018-12-12T05:57:22.926Z,-0.2
2018-12-12T05:58:22.819Z,-0.2
2018-12-12T05:59:22.738Z,-0.2
2018-12-12T06:00:22.691Z,-0.2
2018-12-12T06:01:22.570Z,-0.2
2018-12-12T06:02:22.455Z,-0.2
2018-12-12T06:03:24.968Z,-0.2
2018-12-12T06:04:24.882Z,-0.2
2018-12-12T06:05:24.786Z,-0.2
2018-12-12T06:06:25.152Z,-0.3
2018-12-12T06:07:25.040Z,-0.3
2018-12-12T06:08:25.098Z,-0.3
2018-12-12T06:09:25.017Z,-0.3
2018-12-12T06:10:24.904Z,-0.3
2018-12-12T06:11:24.778Z,-0.3
2018-12-12T06:12:24.663Z,-0.4
2018-12-12T06:13:24.562Z,-0.4
2018-12-12T06:14:24.446Z,-0.4
2018-12-12T06:15:24.352Z,-0.4
2018-12-12T06:16:24.652Z,-0.5
2018-12-12T06:17:24.546Z,-0.4
2018-12-12T06:26:22.834Z,0.2
2018-12-12T06:27:22.728Z,0.2
2018-12-12T06:28:22.626Z,0.1
2018-12-12T06:29:22.579Z,0.1
2018-12-12T06:30:22.513Z,0.1
2018-12-12T06:31:22.416Z,0.1
2018-12-12T06:32:22.304Z,0
2018-12-12T06:33:22.196Z,-0.1
2018-12-12T06:34:22.112Z,-0.2
2018-12-12T06:35:22.020Z,-0.2
2018-12-12T06:36:22.352Z,-0.2
2018-12-12T06:37:22.263Z,-0.2
2018-12-12T06:38:22.171Z,-0.2
2018-12-12T06:39:22.058Z,-0.3
2018-12-12T06:40:22.012Z,-0.3
2018-12-12T06:41:21.908Z,-0.3
2018-12-12T06:42:21.809Z,-0.3
2018-12-12T06:43:21.689Z,-0.4
2018-12-12T06:44:21.572Z,-0.4
2018-12-12T06:45:21.458Z,-0.5
2018-12-12T06:46:21.834Z,-0.5
2018-12-12T06:47:21.750Z,-0.6
2018-12-12T07:06:17.642Z,0.3
2018-12-12T07:07:17.542Z,0.3
2018-12-12T07:08:17.438Z,0.2
2018-12-12T07:09:17.316Z,0.2
2018-12-12T07:10:17.223Z,0.1
2018-12-12T07:11:17.098Z,0.1
2018-12-12T07:12:17.000Z,0
2018-12-12T07:13:16.896Z,0
2018-12-12T07:14:16.786Z,-0.1
2018-12-12T07:15:16.725Z,-0.2
2018-12-12T07:16:17.066Z,-0.3
2018-12-12T07:17:16.999Z,-0.4
2018-12-12T07:18:16.891Z,-0.5
2018-12-12T07:19:16.797Z,-0.6
2018-12-12T07:20:16.685Z,-0.6
2018-12-12T07:21:16.593Z,-0.7
2018-12-12T07:22:16.480Z,-0.7
2018-12-12T07:23:16.357Z,-0.8
2018-12-12T07:24:16.250Z,-0.7
2018-12-12T07:25:16.134Z,-0.8
2018-12-12T07:26:16.469Z,-0.8
2018-12-12T07:27:16.363Z,-0.8
2018-12-12T07:28:16.279Z,-0.8
2018-12-12T07:29:16.178Z,-0.8
2018-12-12T07:30:16.076Z,-0.8
2018-12-12T07:31:16.003Z,-0.7
2018-12-12T07:32:15.907Z,-0.8
2018-12-12T07:33:15.783Z,-0.8
2018-12-12T07:34:15.665Z,-0.8
2018-12-12T07:35:15.566Z,-0.8
2018-12-12T07:36:15.862Z,-0.8
2018-12-12T07:37:15.743Z,-0.9
2018-12-12T07:38:15.618Z,-0.8
2018-12-12T07:39:18.563Z,-0.8
2018-12-12T07:40:18.518Z,-0.8
2018-12-12T07:41:18.439Z,-0.8
2018-12-12T07:42:18.416Z,-0.9
2018-12-12T07:43:18.307Z,-0.9
2018-12-12T07:44:18.197Z,-0.9
2018-12-12T07:45:18.103Z,-0.9
2018-12-12T07:46:18.431Z,-0.9
2018-12-12T07:47:18.356Z,-0.9
2018-12-12T07:48:18.269Z,-0.9
2018-12-12T07:49:18.149Z,-0.8
2018-12-12T07:50:18.041Z,-0.8
2018-12-12T07:51:17.940Z,-0.8
2018-12-12T07:52:17.835Z,-0.8
2018-12-12T07:53:17.738Z,-0.8
2018-12-12T07:54:17.700Z,-0.8
2018-12-12T07:55:17.585Z,-0.8
2018-12-12T07:56:17.901Z,-0.7
2018-12-12T07:57:17.804Z,-0.7
2018-12-12T07:58:17.713Z,-0.7
2018-12-12T07:59:17.608Z,-0.7
2018-12-12T08:00:17.491Z,-0.7
2018-12-12T08:01:17.387Z,-0.7
2018-12-12T08:02:17.279Z,-0.7
2018-12-12T08:03:17.171Z,-0.6
2018-12-12T08:04:17.063Z,-0.6
2018-12-12T08:05:16.959Z,-0.7
2018-12-12T08:06:17.313Z,-0.7
2018-12-12T08:07:17.208Z,-0.6
2018-12-12T08:16:15.492Z,0.1
2018-12-12T08:17:15.375Z,0
2018-12-12T08:18:15.265Z,0
2018-12-12T08:19:15.154Z,0
2018-12-12T08:20:15.057Z,-0.1
2018-12-12T08:21:14.926Z,-0.1
2018-12-12T08:22:14.802Z,-0.1
2018-12-12T08:23:14.678Z,-0.2
2018-12-12T08:24:14.555Z,-0.2
2018-12-12T08:25:14.455Z,-0.2
2018-12-12T08:26:14.777Z,-0.2
2018-12-12T08:27:14.652Z,-0.2
2018-12-12T08:28:14.553Z,-0.4
2018-12-12T08:29:14.436Z,-0.4
2018-12-12T08:30:14.380Z,-0.4
2018-12-12T08:31:14.279Z,-0.4
2018-12-12T08:32:14.169Z,-0.4
2018-12-12T08:33:15.613Z,-0.4
2018-12-12T08:34:15.496Z,-0.4
2018-12-12T08:35:15.398Z,-0.4
2018-12-12T08:36:15.740Z,-0.4
2018-12-12T08:37:15.701Z,-0.4
2018-12-12T08:38:15.613Z,-0.3
2018-12-12T08:39:15.498Z,-0.3
2018-12-12T08:40:15.392Z,-0.2
2018-12-12T08:41:15.310Z,-0.2
2018-12-12T08:42:15.205Z,-0.2
2018-12-12T08:43:15.088Z,-0.3
2018-12-12T08:44:15.000Z,-0.3
2018-12-12T08:45:14.900Z,-0.4
2018-12-12T08:46:15.278Z,-0.5
2018-12-12T08:47:15.210Z,-0.5
2018-12-12T08:56:18.597Z,0.4
2018-12-12T08:57:18.536Z,0.4
2018-12-12T08:58:18.481Z,0.4
2018-12-12T08:59:18.386Z,0.4
2018-12-12T09:00:18.318Z,0.5
2018-12-12T09:01:18.270Z,0.5
2018-12-12T09:02:18.182Z,0.6
2018-12-12T09:03:18.400Z,0.5
2018-12-12T09:04:18.300Z,0.6
2018-12-12T09:05:18.201Z,0.5
2018-12-12T09:06:18.526Z,0.6
2018-12-12T09:07:18.426Z,0.6
2018-12-12T09:08:18.348Z,0.7
2018-12-12T09:09:18.240Z,0.7
2018-12-12T09:10:18.149Z,0.7
2018-12-12T09:11:18.054Z,0.7
2018-12-12T09:12:17.946Z,0.7
2018-12-12T09:13:17.866Z,0.7
2018-12-12T09:14:17.763Z,0.6
2018-12-12T09:15:17.641Z,0.5
2018-12-12T09:16:17.985Z,0.4
2018-12-12T09:17:17.879Z,0.3
2018-12-12T09:18:17.777Z,0.2
2018-12-12T09:19:17.706Z,0.2
2018-12-12T09:20:17.594Z,0.1
2018-12-12T09:21:17.487Z,0
2018-12-12T09:22:17.381Z,0
2018-12-12T09:23:17.272Z,0
2018-12-12T09:24:17.150Z,0
2018-12-12T09:25:17.062Z,0
2018-12-12T09:26:17.392Z,0.1
2018-12-12T09:27:17.287Z,0.1
2018-12-12T09:28:17.203Z,0.1
2018-12-12T09:29:17.094Z,0.1
2018-12-12T09:30:16.985Z,0.1
2018-12-12T09:31:16.891Z,0.2
2018-12-12T09:32:16.780Z,0.2
2018-12-12T09:33:16.662Z,0.1
2018-12-12T09:34:16.547Z,0.1
2018-12-12T09:35:17.492Z,0
2018-12-12T09:36:17.780Z,0
2018-12-12T09:37:17.680Z,0
2018-12-12T09:38:17.583Z,0
2018-12-12T09:39:17.472Z,0
2018-12-12T09:40:17.374Z,0
2018-12-12T09:41:17.269Z,-0.1
2018-12-12T09:42:17.163Z,0
2018-12-12T09:43:17.064Z,0
2018-12-12T09:44:16.956Z,0
2018-12-12T09:45:22.408Z,0
2018-12-12T09:46:22.714Z,0
2018-12-12T09:47:22.617Z,0
2018-12-12T09:48:22.508Z,-0.1
2018-12-12T09:49:22.415Z,0
2018-12-12T09:50:22.332Z,0
2018-12-12T09:51:22.263Z,0
2018-12-12T09:52:22.154Z,0.1
2018-12-12T09:53:22.050Z,0.1
2018-12-12T09:54:21.942Z,0.1
2018-12-12T09:55:21.820Z,0.1
2018-12-12T09:56:22.141Z,0.1
2018-12-12T09:57:22.060Z,0.1
2018-12-12T09:58:21.959Z,0
2018-12-12T09:59:21.854Z,0
2018-12-12T10:00:21.728Z,0
2018-12-12T10:01:21.647Z,0
2018-12-12T10:02:21.573Z,0
2018-12-12T10:03:21.464Z,0.1
2018-12-12T10:04:21.368Z,0
2018-12-12T10:05:21.257Z,0
2018-12-12T10:06:24.209Z,-0.1
2018-12-12T10:07:24.127Z,-0.1
2018-12-12T10:08:24.004Z,-0.1
2018-12-12T10:09:23.886Z,0.1
2018-12-12T10:16:22.603Z,0.4
2018-12-12T10:17:22.477Z,0.4
2018-12-12T10:18:22.383Z,0.4
2018-12-12T10:19:22.270Z,0.3
2018-12-12T10:20:22.162Z,0.3
2018-12-12T10:21:22.099Z,0.3
2018-12-12T10:22:22.016Z,0.2
2018-12-12T10:23:21.891Z,0.2
2018-12-12T10:24:21.797Z,0.2
2018-12-12T10:25:21.684Z,0.2
2018-12-12T10:26:21.995Z,0.2
2018-12-12T10:27:21.907Z,0.2
2018-12-12T10:28:21.800Z,0.1
2018-12-12T10:29:21.705Z,0.1
2018-12-12T10:30:21.655Z,0
2018-12-12T10:31:21.543Z,0
2018-12-12T10:32:24.025Z,0
2018-12-12T10:33:23.917Z,0
2018-12-12T10:34:23.805Z,0.1
2018-12-12T10:35:23.697Z,0.1
2018-12-12T10:36:24.027Z,0.1
2018-12-12T10:37:23.927Z,0.1
2018-12-12T10:38:23.827Z,0.1
2018-12-12T10:39:23.737Z,0.1
2018-12-12T10:40:23.635Z,0.1
2018-12-12T10:41:23.532Z,0
2018-12-12T10:42:23.664Z,0.1
2018-12-12T10:43:23.569Z,0.1
2018-12-12T10:44:23.454Z,0.1
2018-12-12T10:45:23.373Z,0
2018-12-12T10:46:23.694Z,0
2018-12-12T10:47:23.586Z,0.1
2018-12-12T10:48:23.483Z,0.2
2018-12-12T10:49:23.374Z,0.1
2018-12-12T10:50:23.259Z,0.1
2018-12-12T10:51:23.191Z,0.1
2018-12-12T10:52:23.090Z,0.1
2018-12-12T10:53:23.003Z,0.2
2018-12-12T10:54:22.915Z,0.2
2018-12-12T10:55:22.805Z,0.2
2018-12-12T10:56:23.192Z,0.2
2018-12-12T10:57:23.079Z,0.1
2018-12-12T10:58:22.978Z,0
2018-12-12T10:59:22.875Z,0
2018-12-12T11:00:22.794Z,0.1
2018-12-12T11:01:22.709Z,0.2
2018-12-12T11:02:22.579Z,0.3
2018-12-12T11:03:22.464Z,0.3
2018-12-12T11:04:22.437Z,0.4
2018-12-12T11:05:22.332Z,0.4
2018-12-12T11:06:22.681Z,0.4
2018-12-12T11:07:22.579Z,0.5
2018-12-12T11:08:22.479Z,0.5
2018-12-12T11:09:22.374Z,0.5
2018-12-12T11:10:22.283Z,0.5
2018-12-12T11:11:22.177Z,0.5
2018-12-12T11:12:22.099Z,0.5
2018-12-12T11:13:22.014Z,0.5
2018-12-12T11:14:21.944Z,0.5
2018-12-12T11:15:21.840Z,0.5
2018-12-12T11:16:22.179Z,0.5
2018-12-12T11:17:22.085Z,0.5
2018-12-12T11:18:21.974Z,0.6
2018-12-12T11:19:21.859Z,0.6
2018-12-12T11:20:21.747Z,0.6
2018-12-12T11:21:21.643Z,0.7
2018-12-12T11:22:21.555Z,0.7
2018-12-12T11:23:21.663Z,0.7
2018-12-12T11:24:21.559Z,0.8
2018-12-12T11:25:21.461Z,0.8
2018-12-12T11:26:21.767Z,0.8
2018-12-12T11:27:21.717Z,0.8
2018-12-12T11:28:21.639Z,0.8
2018-12-12T11:29:21.527Z,0.8
2018-12-12T11:30:21.417Z,0.8
2018-12-12T11:31:21.322Z,0.8
2018-12-12T11:32:21.221Z,0.8
2018-12-12T11:33:21.121Z,0.9
2018-12-12T11:34:21.074Z,0.9
2018-12-12T11:35:20.970Z,0.9
2018-12-12T11:36:21.298Z,0.9
2018-12-12T11:37:21.190Z,0.9
2018-12-12T11:38:21.097Z,0.9
2018-12-12T11:39:21.029Z,0.9
2018-12-12T11:40:20.926Z,0.9
2018-12-12T11:41:20.827Z,1
2018-12-12T11:42:20.720Z,1
2018-12-12T11:43:20.628Z,1
2018-12-12T11:44:20.601Z,1
2018-12-12T11:45:20.485Z,1
2018-12-12T11:46:20.846Z,0.9
2018-12-12T11:47:20.755Z,0.9
2018-12-12T11:48:20.653Z,0.9
2018-12-12T11:49:20.577Z,0.9
2018-12-12T11:50:20.463Z,0.9
2018-12-12T11:51:20.374Z,1
2018-12-12T11:52:20.286Z,1
2018-12-12T11:53:20.179Z,0.9
2018-12-12T11:54:20.069Z,1.1
2018-12-12T11:55:19.989Z,1.1
2018-12-12T11:56:20.295Z,1.1
2018-12-12T11:57:20.239Z,1.1
2018-12-12T11:58:20.116Z,1.1
2018-12-12T11:59:20.001Z,1.2
2018-12-12T12:04:18.828Z,1.7
2018-12-12T12:06:18.883Z,1.8
2018-12-12T12:07:19.028Z,1.9
2018-12-12T12:08:18.930Z,1.8
2018-12-12T12:09:18.819Z,1.8
2018-12-12T12:10:18.714Z,1.8
2018-12-12T12:11:18.630Z,1.8
2018-12-12T12:12:18.520Z,1.8
2018-12-12T12:13:18.404Z,1.8
2018-12-12T12:14:18.276Z,1.8
2018-12-12T12:15:18.164Z,1.8
2018-12-12T12:16:18.488Z,1.9
2018-12-12T12:17:18.362Z,1.9
2018-12-12T12:18:18.233Z,1.9
2018-12-12T12:19:18.138Z,1.9
2018-12-12T12:20:18.027Z,1.9
2018-12-12T12:21:17.900Z,1.9
2018-12-12T12:22:17.808Z,1.9
2018-12-12T12:23:17.706Z,1.9
2018-12-12T12:24:17.686Z,1.9
2018-12-12T12:25:17.584Z,1.9
2018-12-12T12:26:17.873Z,1.8
2018-12-12T12:27:17.753Z,1.7
2018-12-12T12:28:17.671Z,1.8
2018-12-12T12:29:17.569Z,1.9
2018-12-12T12:30:17.473Z,1.9
2018-12-12T12:31:17.359Z,1.9
2018-12-12T12:32:17.274Z,1.9
2018-12-12T12:33:17.166Z,1.9
2018-12-12T12:34:17.074Z,1.9
2018-12-12T12:35:16.984Z,1.9
2018-12-12T12:36:17.297Z,1.9
2018-12-12T12:37:17.214Z,1.9
2018-12-12T12:38:17.120Z,1.9
2018-12-12T12:39:17.014Z,2
2018-12-12T12:40:16.922Z,2
2018-12-12T12:41:16.822Z,2
2018-12-12T12:42:16.710Z,2
2018-12-12T12:43:16.598Z,2
2018-12-12T12:44:16.512Z,2.1
2018-12-12T12:45:16.404Z,2
2018-12-12T12:46:16.719Z,2
2018-12-12T12:47:16.646Z,2
2018-12-12T12:48:16.544Z,2
2018-12-12T12:49:16.461Z,2.1
2018-12-12T12:50:16.350Z,2
2018-12-12T12:51:18.466Z,2
2018-12-12T12:52:18.362Z,2.2
2018-12-12T12:53:18.318Z,2.3
2018-12-12T12:54:18.217Z,2.3
2018-12-12T12:56:18.214Z,2.4
2018-12-12T12:57:18.089Z,2.4
2018-12-12T12:58:17.986Z,2.4
2018-12-12T12:59:17.896Z,2.5
2018-12-12T13:00:17.806Z,2.4
2018-12-12T13:01:17.675Z,2.4
2018-12-12T13:02:17.568Z,2.4
2018-12-12T13:03:17.454Z,2.3
2018-12-12T13:04:17.332Z,2.2
2018-12-12T13:05:17.246Z,2.2
2018-12-12T13:06:17.549Z,2.2
2018-12-12T13:07:17.438Z,2.1
2018-12-12T13:08:17.334Z,2.2
2018-12-12T13:09:17.249Z,2.3
2018-12-12T13:10:17.142Z,2.2
2018-12-12T13:11:17.038Z,2.3
2018-12-12T13:12:17.232Z,2.3
2018-12-12T13:13:17.897Z,2.4
2018-12-12T13:14:18.486Z,2.4
2018-12-12T13:15:18.415Z,2.5
2018-12-12T13:16:18.753Z,2.5
2018-12-12T13:17:18.631Z,2.6
2018-12-12T13:18:18.534Z,2.5
2018-12-12T13:19:18.416Z,2.4
2018-12-12T13:20:18.425Z,2.4
2018-12-12T13:21:18.332Z,2.4
2018-12-12T13:22:18.215Z,2.4
2018-12-12T13:23:18.120Z,2.4
2018-12-12T13:24:18.035Z,2.3
2018-12-12T13:25:17.943Z,2.2
2018-12-12T13:26:18.277Z,2.2
2018-12-12T13:27:18.162Z,2.1
2018-12-12T13:28:18.053Z,2.1
2018-12-12T13:29:17.955Z,2
2018-12-12T13:30:17.841Z,1.8
2018-12-12T13:31:17.765Z,1.8
2018-12-12T13:32:17.649Z,1.9
2018-12-12T13:33:17.541Z,1.7
2018-12-12T13:34:17.439Z,1.6
2018-12-12T13:35:17.340Z,1.6
2018-12-12T13:36:17.664Z,1.7
2018-12-12T13:37:17.591Z,1.8
2018-12-12T13:38:17.477Z,1.7
2018-12-12T13:39:17.382Z,1.8
2018-12-12T13:40:17.283Z,1.8
2018-12-12T13:41:17.167Z,1.8
2018-12-12T13:42:17.050Z,1.7
2018-12-12T13:43:16.952Z,1.6
2018-12-12T13:44:16.838Z,1.6
2018-12-12T13:45:16.742Z,1.6
2018-12-12T13:46:19.770Z,1.6
2018-12-12T13:47:19.658Z,1.6
2018-12-12T13:48:19.556Z,1.6
2018-12-12T13:49:19.446Z,1.6
2018-12-12T13:50:19.338Z,1.6
2018-12-12T13:51:19.236Z,1.6
2018-12-12T13:52:19.139Z,1.6
2018-12-12T13:53:19.055Z,1.6
2018-12-12T13:54:18.985Z,1.6
2018-12-12T13:55:19.004Z,1.5
2018-12-12T13:56:19.346Z,1.4
2018-12-12T13:57:19.254Z,1.5
2018-12-12T13:58:19.182Z,1.5
2018-12-12T13:59:19.076Z,1.6
2018-12-12T14:00:18.982Z,1.6
2018-12-12T14:01:18.912Z,1.7
2018-12-12T14:02:18.803Z,1.8
2018-12-12T14:06:23.241Z,2
2018-12-12T14:07:23.180Z,2
2018-12-12T14:08:23.084Z,2
2018-12-12T14:09:22.983Z,1.9
2018-12-12T14:10:22.854Z,1.8
2018-12-12T14:11:22.742Z,1.9
2018-12-12T14:12:22.648Z,1.9
2018-12-12T14:13:22.552Z,1.8
2018-12-12T14:14:22.458Z,1.8
2018-12-12T14:15:22.400Z,1.7
2018-12-12T14:16:22.725Z,1.7
2018-12-12T14:17:22.619Z,1.7
2018-12-12T14:18:22.535Z,1.6
2018-12-12T14:19:22.440Z,1.5
2018-12-12T14:20:22.569Z,1.5
2018-12-12T14:21:22.478Z,1.5
2018-12-12T14:22:22.378Z,1.5
2018-12-12T14:23:22.269Z,1.5
2018-12-12T14:24:22.198Z,1.5
2018-12-12T14:25:22.134Z,1.5
2018-12-12T14:26:22.490Z,1.4
2018-12-12T14:27:22.401Z,1.3
2018-12-12T14:28:22.297Z,1.3
2018-12-12T14:29:22.200Z,1.3
2018-12-12T14:30:22.102Z,1.3
2018-12-12T14:31:22.008Z,1.3
2018-12-12T14:32:23.447Z,1.2
2018-12-12T14:33:23.331Z,1.2
2018-12-12T14:34:29.820Z,1.1
2018-12-12T14:35:29.708Z,1.1
2018-12-12T14:36:31.110Z,1
2018-12-12T14:37:31.022Z,1.1
2018-12-12T14:38:30.922Z,1.1
2018-12-12T14:39:30.846Z,1.1
2018-12-12T14:40:30.983Z,1.1
2018-12-12T14:41:30.876Z,1.1
2018-12-12T14:42:30.758Z,1
2018-12-12T14:43:30.634Z,1
2018-12-12T14:44:30.558Z,1
2018-12-12T14:45:30.450Z,0.9
2018-12-12T14:46:30.776Z,0.9
2018-12-12T14:47:30.663Z,0.9
2018-12-12T14:48:30.948Z,0.9
2018-12-12T14:49:30.835Z,1
2018-12-12T14:50:30.962Z,1
2018-12-12T14:51:30.880Z,1
2018-12-12T14:52:30.771Z,1
2018-12-12T14:53:30.684Z,1
2018-12-12T14:54:30.599Z,0.9
2018-12-12T14:55:30.502Z,0.9
2018-12-12T14:56:30.786Z,0.9
2018-12-12T14:57:30.686Z,0.9
2018-12-12T14:58:30.599Z,0.9
2018-12-12T14:59:30.490Z,0.9
2018-12-12T15:03:29.638Z,1.3
2018-12-12T15:05:39.085Z,1.3
2018-12-12T15:06:39.437Z,1.4
2018-12-12T15:07:39.378Z,1.4
2018-12-12T15:08:39.271Z,1.4
2018-12-12T15:09:39.203Z,1.4
2018-12-12T15:10:39.151Z,1.3
2018-12-12T15:11:39.229Z,1.2
2018-12-12T15:12:42.160Z,1.2
2018-12-12T15:13:42.371Z,1.2
2018-12-12T15:14:42.289Z,1.1
2018-12-12T15:15:42.179Z,1
2018-12-12T15:16:43.338Z,0.9
2018-12-12T15:17:43.810Z,0.8
2018-12-12T15:18:44.027Z,0.9
2018-12-12T15:19:44.492Z,0.9
2018-12-12T15:20:44.449Z,0.7
2018-12-12T15:21:44.332Z,0.8
2018-12-12T15:22:44.319Z,0.8
2018-12-12T15:23:53.281Z,0.8
2018-12-12T15:24:53.187Z,0.8
2018-12-12T15:25:53.111Z,0.8
2018-12-12T15:26:53.968Z,0.8
2018-12-12T15:27:53.865Z,0.7
2018-12-12T15:28:53.756Z,0.7
2018-12-12T15:29:53.663Z,0.7
2018-12-12T15:30:53.955Z,0.7
2018-12-12T15:31:54.348Z,0.6
2018-12-12T15:32:54.359Z,0.6
2018-12-12T15:33:54.559Z,0.6
2018-12-12T15:34:54.453Z,0.6
2018-12-12T15:35:54.352Z,0.5
2018-12-12T15:36:54.667Z,0.5
2018-12-12T15:37:54.577Z,0.5
2018-12-12T15:38:54.495Z,0.5
2018-12-12T15:39:54.405Z,0.5
2018-12-12T15:40:54.307Z,0.5
2018-12-12T15:41:54.451Z,0.4
2018-12-12T15:42:54.332Z,0.4
2018-12-12T15:43:54.916Z,0.4
2018-12-12T15:44:54.831Z,0.4
2018-12-12T15:46:00.713Z,0.4
2018-12-12T15:47:01.362Z,0.3
2018-12-12T15:48:01.243Z,0.3
2018-12-12T15:49:01.892Z,0.3
2018-12-12T15:50:01.785Z,0.3
2018-12-12T15:51:01.738Z,0.3
2018-12-12T15:52:01.637Z,0.3
2018-12-12T15:53:01.534Z,0.3
2018-12-12T15:54:01.438Z,0.2
2018-12-12T15:55:01.450Z,0.2
2018-12-12T15:56:01.730Z,0.2
2018-12-12T15:57:02.161Z,0.2
2018-12-12T15:58:03.094Z,0.2
2018-12-12T15:59:03.025Z,0.2
2018-12-12T16:00:02.919Z,0.1
2018-12-12T16:01:02.821Z,0.1
2018-12-12T16:02:02.700Z,0.1
2018-12-12T16:03:03.042Z,0.1
2018-12-12T16:04:03.586Z,0.1
2018-12-12T16:05:03.692Z,0.1
2018-12-12T16:06:03.585Z,0
2018-12-12T16:07:03.909Z,0
2018-12-12T16:08:03.818Z,0
2018-12-12T16:09:03.722Z,0